Escanaba, Michigan
Current Conditions -  °F | °C
As of 7:55 PM on Sunday 23 Nov 2014 (Local Time) from KESC Reporting Station
Overcast Overcast  
Wind Chill: 43°   Ceiling: 200
Heat Index: 43°   Visibility: 1.7mi
Dew Point: 39°   Wind: 3mph
Humidity: 87%   Direction: 160°SSE
Pressure: 29.41"   Gusts: NA
Location:  45.75°N, 87.08°W
Report Text: KESC 240055Z AUTO 16003KT 1 3/4SM OVC002 06/04 A2941 RMK AO1
Loading
Personal Weather Stations






























Interactive Weather Map New forecast layout! Learn more

10-Day Weather Forecast

Advertisements
Track Severe Weather on mobile